Historyczne dane pomiarowe

Dodano dane terminowe – wersja testowa.

Dane z okresu 1951-2019

Wersja bazy: 1.34 [2019-03-16, lista zmian], aktualizacja planowana na 2019-04-15

Dane meteo z obszaru Polski uzyskane na podstawie danych udostępnionych przez Instytut Meteorologii i Gospodarki Wodnej – Państwowy Instytut Badawczy.

 

Wybierz Datę:    

       

TemperaturaWilgotnośćWiatrCiśnienieOpadyŚniegCzas trwania zjawisk
 Stacja t tx tn tng RH VA  wxwx mslp ppp RRR   cm mm wxwxwxwxwxwxwx
1999-08-14 15.4 21.9 8.6- 56.8- 2.7 1.0---- 0.0------------
1999-08-13 14.7 19.9 10.9- 64.0- 4.7 2.3---- 0.0------------
1999-08-12 15.5 18.7 13.6- 70.3- 6.7 1.7---- 0.0------------
1999-08-11 17.7 23.4 14.4- 78.0- 5.7 1.7---- 4.0------------
1999-08-10 20.0 22.9 16.6- 75.0- 7.3 1.7---- 2.3------------
1999-08-09 21.9 26.9 18.4- 75.5- 2.0 1.3---- 3.4------------
1999-08-08 21.2 29.0 16.4- 78.8- 5.0 0.3---- 0.0------------
1999-08-07 20.8 28.6 16.0- 71.8- 5.0 1.0---- 8.7------------
1999-08-06 20.8 26.9 15.7- 70.8- 3.7 1.3---- 0.0------------
1999-08-05 19.8 26.4 13.1- 54.8- 4.7 0.7---- 0.0------------
1999-08-04 18.8 25.4 12.5- 55.0- 2.3 1.7---- 0.0------------
1999-08-03 17.8 24.5 12.1- 62.8- 4.0 1.3---- 0.0------------
1999-08-02 17.7 24.2 11.5- 62.8- 5.0 0.7---- 0.0------------
1999-08-01 17.7 25.3 7.4- 53.5- 5.3 1.7---- 0.0------------
1999-07-31 18.5 25.0 11.0- 55.0- 3.0 2.0---- 0.0------------
1999-07-30 17.7 23.9 10.6- 58.8- 2.0 1.3---- 0.0------------
1999-07-29 17.2 23.0 12.3- 74.8- 4.3 2.3---- 0.0------------
1999-07-28 17.9 23.0 12.0- 59.0- 2.7 2.3---- 0.0------------
1999-07-27 17.9 22.3 15.2- 80.3- 6.3 1.7---- 0.0------------
1999-07-26 19.8 26.0 13.0- 61.5- 1.7 1.0---- 0.0------------
1999-07-25 18.2 24.1 10.6- 66.3- 1.3 1.0---- 0.0------------
1999-07-24 16.2 19.4 13.0- 70.0- 5.7 1.3---- 0.0------------
1999-07-23 16.4 21.0 13.4- 66.0- 7.0 1.3---- 0.0------------
1999-07-22 19.2 23.8 16.5- 54.0- 5.3 2.3---- 0.0------------
1999-07-21 23.2 27.5 19.0- 60.0- 5.0 4.3---- 0.0------------
1999-07-20 22.7 29.8 17.0- 53.3- 2.7 1.3---- 1.1------------
1999-07-19 21.8 28.1 16.1- 58.5- 3.0 1.0---- 0.0------------
1999-07-18 21.2 26.3 14.4- 57.0- 2.7 2.0---- 0.0------------
1999-07-17 17.9 22.9 11.4- 57.3- 1.0 1.7---- 0.0------------
1999-07-16 14.9 20.3 10.0- 76.5- 4.7 1.3---- 0.0------------
1999-07-15 15.7 17.4 14.0- 74.8- 4.7 2.0---- 4.7------------
1999-07-14 20.2 26.3 17.1- 74.3- 6.0 2.0---- 2.5------------
1999-07-13 20.3 26.9 16.0- 79.5- 6.0 3.3---- 1.6------------
1999-07-12 21.2 25.9 15.0- 77.5- 5.3 1.7---- 0.0------------
1999-07-11 18.8 21.1 16.4- 83.0- 7.3 1.3---- 0.5------------
1999-07-10 19.2 21.5 16.6- 86.5- 7.3 2.0---- 0.0------------
1999-07-09 16.1 17.5 13.9- 98.3- 8.0 1.0---- 5.5------------
1999-07-08 14.4 16.4 12.9- 99.0- 8.0 2.7---- 59.7------------
1999-07-07 19.1 25.3 16.0- 84.5- 7.0 0.3---- 78.5------------
1999-07-06 25.9 32.0 21.0- 59.0- 5.3 0.3---- 28.5------------
1999-07-05 24.6 29.5 17.0- 54.5- 2.3 1.7---- 0.0------------
1999-07-04 24.3 31.0 16.0- 59.0- 1.3 0.3---- 0.0------------
1999-07-03 19.6 24.8 12.9- 70.8- 0.3 2.3---- 0.0------------
1999-07-02 19.5 23.9 14.5- 77.3- 5.0 1.0---- 10.0------------
1999-07-01 18.7 22.5 14.8- 79.3- 5.7 1.0---- 7.0------------
1999-06-30 20.2 25.2 15.2- 68.5- 3.7 1.7---- 0.0------------
1999-06-29 18.2 21.9 12.3- 62.3- 2.3 1.0---- 0.0------------
1999-06-28 20.2 25.4 15.6- 72.5- 5.7 1.7---- 24.5------------
1999-06-27 20.5 24.5 16.6- 55.5- 5.0 2.0---- 4.0------------
1999-06-26 16.5 22.9 9.0- 69.3- 3.0 1.7---- 0.0------------
1999-06-25 12.7 17.9 6.0- 72.5- 6.3 1.3---- 8.9------------
1999-06-24 11.7 16.5 6.1- 70.5- 4.3 0.7---- 0.1------------
1999-06-23 8.6 10.4 6.1- 83.8- 7.0 3.3---- 0.0------------
1999-06-22 8.5 11.7 6.6- 96.0- 8.0 4.0---- 25.7------------
1999-06-21 15.5 21.3 11.3- 81.0- 7.0 2.0---- 35.9------------
1999-06-20 17.0 20.9 11.5- 81.5- 6.3 1.0---- 0.6------------
1999-06-19 14.7 18.2 11.9- 91.5- 8.0 1.0---- 0.6------------
1999-06-18 15.4 18.8 12.9- 91.5- 8.0 3.0---- 19.2------------
1999-06-17 17.1 21.5 12.6- 83.3- 6.3 1.3---- 0.0------------
1999-06-16 15.9 18.5 13.7- 94.5- 7.7 1.0---- 1.2------------
292.8 ms

 

Źródłem pochodzenia danych jest Instytut Meteorologii i Gospodarki Wodnej – Państwowy Instytut Badawczy. Dane Instytutu Meteorologii i Gospodarki Wodnej – Państwowego Instytutu Badawczego zostały przetworzone.

Dane źródłowe można odnaleźć na stronie https://dane.imgw.pl